createdAt,value
2023-05-07T00:02:40.434Z,100143.78
2023-05-07T00:08:40.854Z,100143.97
2023-05-07T00:11:27.628Z,100139.41
2023-05-07T00:14:14.018Z,100134.97
2023-05-07T00:17:00.493Z,100136.25
2023-05-07T00:19:46.775Z,100134.41
2023-05-07T00:22:33.400Z,100146.72
2023-05-07T00:25:27.758Z,100147.22
2023-05-07T00:28:20.514Z,100152.03
2023-05-07T00:34:25.545Z,100146.72
2023-05-07T00:40:36.095Z,100158.28
2023-05-07T00:43:29.595Z,100164.88
2023-05-07T00:46:23.335Z,100163.44
2023-05-07T00:49:18.484Z,100155.16
2023-05-07T00:52:13.201Z,100157.22
2023-05-07T00:55:31.492Z,100146.28
2023-05-07T00:58:25.708Z,100150.84
2023-05-07T01:01:17.911Z,100160.78
2023-05-07T01:04:10.225Z,100155.22
2023-05-07T01:07:03.256Z,100151.13
2023-05-07T01:09:58.693Z,100147.59
2023-05-07T01:12:52.242Z,100151.53
2023-05-07T01:15:46.807Z,100149.44
2023-05-07T01:18:39.146Z,100154.59
2023-05-07T01:21:34.864Z,100146.34
2023-05-07T01:24:31.129Z,100162.66
2023-05-07T01:27:24.458Z,100155.63
2023-05-07T01:30:18.967Z,100156.03
2023-05-07T01:33:13.375Z,100158.78
2023-05-07T01:36:08.187Z,100174.25
2023-05-07T01:39:01.265Z,100167.25
2023-05-07T01:41:55.639Z,100160.66
2023-05-07T01:44:49.584Z,100160.44
2023-05-07T01:47:42.470Z,100159.97
2023-05-07T01:51:03.511Z,100153.56
2023-05-07T01:53:56.348Z,100159.13
2023-05-07T01:57:06.443Z,100164.91
2023-05-07T01:59:57.525Z,100158.53
2023-05-07T02:05:57.079Z,100160.97
2023-05-07T02:08:56.283Z,100164.50
2023-05-07T02:11:49.459Z,100159.53
2023-05-07T02:15:11.426Z,100163.63
2023-05-07T02:18:05.650Z,100165.25
2023-05-07T02:21:12.279Z,100160.94
2023-05-07T02:24:05.460Z,100156.78
2023-05-07T02:26:58.289Z,100158.75
2023-05-07T02:29:51.097Z,100167.28
2023-05-07T02:32:45.477Z,100164.16
2023-05-07T02:35:38.498Z,100163.94
2023-05-07T02:38:30.975Z,100162.28
2023-05-07T02:41:22.975Z,100167.69
2023-05-07T02:44:15.321Z,100163.75
2023-05-07T02:47:09.645Z,100158.88
2023-05-07T02:50:04.541Z,100162.06
2023-05-07T02:56:17.912Z,100169.59
2023-05-07T02:59:10.053Z,100162.91
2023-05-07T03:02:06.369Z,100172.00
2023-05-07T03:08:12.872Z,100171.75
2023-05-07T03:14:22.535Z,100164.13
2023-05-07T03:17:15.095Z,100163.63
2023-05-07T03:20:11.124Z,100171.50
2023-05-07T03:23:04.092Z,100156.81
2023-05-07T03:25:58.379Z,100151.31
2023-05-07T03:28:51.207Z,100149.09
2023-05-07T03:31:44.210Z,100147.25
2023-05-07T03:34:37.374Z,100151.09
2023-05-07T03:37:30.415Z,100141.00
2023-05-07T03:40:27.527Z,100148.63
2023-05-07T03:43:22.648Z,100149.03
2023-05-07T03:46:23.511Z,100147.53
2023-05-07T03:49:18.740Z,100147.53
2023-05-07T03:52:11.050Z,100151.03
2023-05-07T03:55:04.431Z,100163.78
2023-05-07T03:57:59.796Z,100165.44
2023-05-07T04:01:04.647Z,100168.94
2023-05-07T04:03:58.309Z,100171.69
2023-05-07T04:06:51.466Z,100181.88
2023-05-07T04:09:44.361Z,100183.78
2023-05-07T04:12:36.952Z,100175.91
2023-05-07T04:15:31.044Z,100175.00
2023-05-07T04:18:25.490Z,100185.94
2023-05-07T04:21:18.578Z,100174.44
2023-05-07T04:27:30.620Z,100199.44
2023-05-07T04:30:23.228Z,100190.06
2023-05-07T04:33:17.645Z,100192.47
2023-05-07T04:36:12.398Z,100199.75
2023-05-07T04:39:13.230Z,100194.28
2023-05-07T04:42:09.711Z,100204.84
2023-05-07T04:48:38.051Z,100208.34
2023-05-07T04:51:49.705Z,100205.81
2023-05-07T04:54:47.591Z,100197.47
2023-05-07T04:57:42.255Z,100206.16
2023-05-07T05:03:57.515Z,100208.47
2023-05-07T05:09:58.918Z,100209.75
2023-05-07T05:16:08.788Z,100207.41
2023-05-07T05:19:01.484Z,100206.47
2023-05-07T05:21:55.995Z,100203.84
2023-05-07T05:24:49.019Z,100210.22
2023-05-07T05:27:43.777Z,100212.03
2023-05-07T05:30:37.030Z,100208.47
2023-05-07T05:36:49.294Z,100210.09
2023-05-07T05:42:47.462Z,100219.09
2023-05-07T05:48:52.522Z,100223.28
2023-05-07T05:51:45.439Z,100231.97
2023-05-07T05:54:39.320Z,100231.84
2023-05-07T05:57:32.803Z,100227.41
2023-05-07T06:00:26.629Z,100243.53
2023-05-07T06:03:26.934Z,100240.06
2023-05-07T06:06:20.122Z,100235.72
2023-05-07T06:09:13.558Z,100234.19
2023-05-07T06:12:09.050Z,100227.09
2023-05-07T06:15:02.333Z,100226.69
2023-05-07T06:17:58.228Z,100229.56
2023-05-07T06:20:51.160Z,100230.38
2023-05-07T06:23:50.624Z,100236.56
2023-05-07T06:26:43.208Z,100243.41
2023-05-07T06:30:01.565Z,100241.69
2023-05-07T06:32:54.220Z,100246.56
2023-05-07T06:36:24.497Z,100232.88
2023-05-07T06:39:22.363Z,100253.91
2023-05-07T06:42:27.390Z,100249.09
2023-05-07T06:45:26.075Z,100251.09
2023-05-07T06:51:39.308Z,100258.50
2023-05-07T06:54:34.271Z,100272.03
2023-05-07T06:57:27.019Z,100263.06
2023-05-07T07:00:21.468Z,100261.03
2023-05-07T07:03:19.295Z,100272.22
2023-05-07T07:06:13.385Z,100277.94
2023-05-07T07:09:06.423Z,100269.19
2023-05-07T07:15:08.890Z,100269.03
2023-05-07T07:18:01.168Z,100268.75
2023-05-07T07:20:53.894Z,100270.47
2023-05-07T07:23:47.354Z,100275.78
2023-05-07T07:30:14.834Z,100268.41
2023-05-07T07:36:38.930Z,100272.88
2023-05-07T07:39:40.147Z,100280.91
2023-05-07T07:42:34.432Z,100276.47
2023-05-07T07:45:29.941Z,100272.78
2023-05-07T07:48:22.436Z,100282.78
2023-05-07T07:51:15.094Z,100283.56
2023-05-07T07:54:08.166Z,100278.81
2023-05-07T07:57:02.412Z,100278.59
2023-05-07T07:59:58.134Z,100289.88
2023-05-07T08:02:52.817Z,100291.97
2023-05-07T08:05:52.056Z,100285.97
2023-05-07T08:08:45.048Z,100292.63
2023-05-07T08:12:10.352Z,100283.72
2023-05-07T08:15:04.339Z,100283.72
2023-05-07T08:18:11.418Z,100287.25
2023-05-07T08:21:08.681Z,100282.81
2023-05-07T08:27:22.547Z,100284.31
2023-05-07T08:30:16.288Z,100285.81
2023-05-07T08:33:10.690Z,100289.63
2023-05-07T08:36:04.780Z,100294.44
2023-05-07T08:38:57.142Z,100293.75
2023-05-07T08:42:18.547Z,100296.88
2023-05-07T08:45:12.355Z,100296.41
2023-05-07T08:48:17.364Z,100301.22
2023-05-07T08:51:42.557Z,100295.28
2023-05-07T08:54:38.907Z,100289.69
2023-05-07T08:57:33.438Z,100294.97
2023-05-07T09:00:26.335Z,100294.28
2023-05-07T09:03:21.284Z,100292.06
2023-05-07T09:06:17.497Z,100293.94
2023-05-07T09:09:10.805Z,100301.06
2023-05-07T09:12:06.069Z,100299.41
2023-05-07T09:15:00.910Z,100299.00
2023-05-07T09:17:55.346Z,100300.28
2023-05-07T09:20:48.272Z,100297.22
2023-05-07T09:23:43.596Z,100308.75
2023-05-07T09:26:40.138Z,100312.03
2023-05-07T09:32:47.975Z,100309.63
2023-05-07T09:39:01.739Z,100308.19
2023-05-07T09:41:55.578Z,100298.41
2023-05-07T09:45:01.010Z,100303.06
2023-05-07T09:48:00.483Z,100303.44
2023-05-07T09:50:59.038Z,100292.31
2023-05-07T09:53:54.442Z,100296.44
2023-05-07T09:56:50.424Z,100298.16
2023-05-07T09:59:45.701Z,100292.31
2023-05-07T10:02:47.279Z,100295.63
2023-05-07T10:05:42.052Z,100290.66
2023-05-07T10:08:35.377Z,100297.78
2023-05-07T10:11:29.947Z,100300.44
2023-05-07T10:14:23.282Z,100291.72
2023-05-07T10:20:31.918Z,100293.47
2023-05-07T10:23:25.950Z,100296.00
2023-05-07T10:26:23.974Z,100305.44
2023-05-07T10:29:36.578Z,100298.53
2023-05-07T10:32:39.683Z,100297.81
2023-05-07T10:35:32.792Z,100300.28
2023-05-07T10:38:21.565Z,100308.81
2023-05-07T10:41:09.393Z,100306.63
2023-05-07T10:44:09.622Z,100303.44
2023-05-07T10:47:09.857Z,100300.44
2023-05-07T10:50:23.530Z,100305.53
2023-05-07T10:56:29.709Z,100307.84
2023-05-07T11:03:05.952Z,100305.56
2023-05-07T11:06:11.756Z,100312.09
2023-05-07T11:13:01.613Z,100303.09
2023-05-07T11:16:28.069Z,100311.34
2023-05-07T11:19:51.700Z,100304.25
2023-05-07T11:22:56.080Z,100304.25
2023-05-07T11:26:13.000Z,100302.75
2023-05-07T11:29:12.669Z,100309.56
2023-05-07T11:32:06.945Z,100303.41
2023-05-07T11:35:07.193Z,100310.25
2023-05-07T11:38:01.787Z,100306.75
2023-05-07T11:43:58.189Z,100309.47
2023-05-07T11:46:51.736Z,100306.44
2023-05-07T11:49:45.087Z,100304.78
2023-05-07T11:52:37.803Z,100305.03
2023-05-07T11:55:29.925Z,100311.38
2023-05-07T12:02:00.024Z,100307.22
2023-05-07T12:05:08.402Z,100308.88
2023-05-07T12:08:00.233Z,100301.59
2023-05-07T12:10:53.281Z,100305.63
2023-05-07T12:13:46.707Z,100293.81
2023-05-07T12:16:40.895Z,100300.53
2023-05-07T12:23:03.399Z,100305.56
2023-05-07T12:26:25.596Z,100300.69
2023-05-07T12:29:19.128Z,100301.00
2023-05-07T12:32:48.532Z,100301.91
2023-05-07T12:35:43.416Z,100301.22
2023-05-07T12:38:54.054Z,100310.28
2023-05-07T12:41:57.037Z,100303.16
2023-05-07T12:44:49.486Z,100311.56
2023-05-07T12:47:45.834Z,100315.91
2023-05-07T12:50:38.590Z,100320.47
2023-05-07T12:53:33.022Z,100315.34
2023-05-07T12:56:25.351Z,100326.25
2023-05-07T12:59:19.712Z,100323.91
2023-05-07T13:02:12.419Z,100328.06
2023-05-07T13:05:07.946Z,100324.19
2023-05-07T13:08:00.408Z,100323.75
2023-05-07T13:10:53.966Z,100326.00
2023-05-07T13:13:46.509Z,100326.88
2023-05-07T13:16:40.569Z,100328.16
2023-05-07T13:19:33.434Z,100332.91
2023-05-07T13:22:26.231Z,100324.50
2023-05-07T13:28:40.258Z,100327.09
2023-05-07T13:31:34.764Z,100328.69
2023-05-07T13:37:39.540Z,100335.81
2023-05-07T13:40:32.356Z,100336.50
2023-05-07T13:46:37.772Z,100332.59
2023-05-07T13:52:51.383Z,100327.72
2023-05-07T13:55:44.522Z,100330.22
2023-05-07T13:58:42.294Z,100325.59
2023-05-07T14:01:41.197Z,100335.72
2023-05-07T14:04:34.535Z,100323.63
2023-05-07T14:07:27.295Z,100320.19
2023-05-07T14:10:21.761Z,100323.84
2023-05-07T14:13:14.447Z,100334.28
2023-05-07T14:16:07.775Z,100317.56
2023-05-07T14:19:00.169Z,100313.31
2023-05-07T14:21:52.442Z,100313.38
2023-05-07T14:24:48.544Z,100317.31
2023-05-07T14:27:46.691Z,100326.38
2023-05-07T14:30:39.234Z,100330.66
2023-05-07T14:33:32.163Z,100324.19
2023-05-07T14:39:36.884Z,100330.22
2023-05-07T14:42:29.185Z,100325.56
2023-05-07T14:45:24.082Z,100320.88
2023-05-07T14:48:16.363Z,100326.06
2023-05-07T14:51:37.633Z,100324.03
2023-05-07T14:54:30.596Z,100322.56
2023-05-07T14:58:00.550Z,100326.47
2023-05-07T15:00:54.876Z,100322.84
2023-05-07T15:04:02.943Z,100329.94
2023-05-07T15:06:55.090Z,100322.41
2023-05-07T15:09:48.289Z,100329.34
2023-05-07T15:12:39.962Z,100331.28
2023-05-07T15:15:32.411Z,100334.94
2023-05-07T15:18:26.831Z,100329.28
2023-05-07T15:21:19.489Z,100331.72
2023-05-07T15:24:12.466Z,100341.06
2023-05-07T15:27:06.170Z,100337.28
2023-05-07T15:29:58.215Z,100341.91
2023-05-07T15:33:28.574Z,100343.88
2023-05-07T15:36:23.043Z,100335.44
2023-05-07T15:42:27.647Z,100341.09
2023-05-07T15:45:20.323Z,100340.03
2023-05-07T15:48:13.579Z,100340.75
2023-05-07T15:51:08.687Z,100337.59
2023-05-07T15:57:15.027Z,100334.66
2023-05-07T16:00:09.587Z,100334.31
2023-05-07T16:03:05.900Z,100328.16
2023-05-07T16:06:00.565Z,100338.03
2023-05-07T16:11:58.202Z,100336.28
2023-05-07T16:18:09.366Z,100341.25
2023-05-07T16:21:02.376Z,100336.69
2023-05-07T16:23:55.228Z,100334.78
2023-05-07T16:26:48.457Z,100341.66
2023-05-07T16:29:41.239Z,100338.25
2023-05-07T16:32:34.587Z,100343.28
2023-05-07T16:35:59.235Z,100346.94
2023-05-07T16:38:53.935Z,100347.78
2023-05-07T16:41:48.597Z,100348.31
2023-05-07T16:44:41.326Z,100353.25
2023-05-07T16:47:34.389Z,100351.41
2023-05-07T16:50:27.498Z,100345.09
2023-05-07T16:53:20.756Z,100342.56
2023-05-07T16:56:14.511Z,100347.72
2023-05-07T17:02:14.232Z,100348.03
2023-05-07T17:08:19.723Z,100334.06
2023-05-07T17:14:29.994Z,100339.25
2023-05-07T17:17:22.048Z,100340.38
2023-05-07T17:20:15.282Z,100346.66
2023-05-07T17:26:17.692Z,100351.94
2023-05-07T17:32:29.386Z,100354.84
2023-05-07T17:35:22.335Z,100360.13
2023-05-07T17:38:15.866Z,100366.41
2023-05-07T17:44:28.192Z,100368.53
2023-05-07T17:47:20.144Z,100371.03
2023-05-07T17:53:28.613Z,100377.22
2023-05-07T17:56:21.614Z,100391.44
2023-05-07T17:59:14.091Z,100390.78
2023-05-07T18:05:18.760Z,100400.44
2023-05-07T18:08:11.287Z,100410.19
2023-05-07T18:14:17.538Z,100415.16
2023-05-07T18:20:21.788Z,100415.97
2023-05-07T18:23:14.440Z,100414.72
2023-05-07T18:26:08.511Z,100426.72
2023-05-07T18:29:01.145Z,100435.03
2023-05-07T18:31:54.671Z,100435.22
2023-05-07T18:34:47.428Z,100439.34
2023-05-07T18:37:40.556Z,100436.63
2023-05-07T18:40:33.268Z,100441.97
2023-05-07T18:46:48.609Z,100439.22
2023-05-07T18:52:52.570Z,100443.44
2023-05-07T18:58:57.660Z,100450.44
2023-05-07T19:01:50.583Z,100455.13
2023-05-07T19:07:57.018Z,100452.78
2023-05-07T19:10:49.497Z,100450.59
2023-05-07T19:13:46.471Z,100455.53
2023-05-07T19:16:39.461Z,100462.94
2023-05-07T19:19:32.623Z,100467.81
2023-05-07T19:22:25.290Z,100456.97
2023-05-07T19:25:19.921Z,100468.00
2023-05-07T19:31:26.947Z,100468.00
2023-05-07T19:34:19.530Z,100469.94
2023-05-07T19:37:12.242Z,100471.91
2023-05-07T19:40:06.590Z,100480.97
2023-05-07T19:46:09.579Z,100485.25
2023-05-07T19:49:02.264Z,100493.75
2023-05-07T19:52:07.064Z,100491.06
2023-05-07T19:54:59.361Z,100497.38
2023-05-07T20:01:39.907Z,100508.84
2023-05-07T20:04:37.237Z,100518.16
2023-05-07T20:11:00.018Z,100516.34
2023-05-07T20:14:10.086Z,100524.16
2023-05-07T20:17:00.571Z,100524.72
2023-05-07T20:23:14.433Z,100529.94
2023-05-07T20:29:16.168Z,100543.19
2023-05-07T20:32:10.387Z,100547.63
2023-05-07T20:35:03.269Z,100547.75
2023-05-07T20:37:56.646Z,100550.97
2023-05-07T20:40:49.425Z,100548.69
2023-05-07T20:43:42.704Z,100557.66
2023-05-07T20:46:36.536Z,100552.53
2023-05-07T20:49:30.643Z,100560.56
2023-05-07T20:52:22.980Z,100560.56
2023-05-07T20:55:15.338Z,100565.13
2023-05-07T20:58:08.326Z,100570.53
2023-05-07T21:01:01.295Z,100567.09
2023-05-07T21:03:54.521Z,100577.63
2023-05-07T21:10:25.997Z,100574.34
2023-05-07T21:13:35.672Z,100579.97
2023-05-07T21:16:25.333Z,100571.31
2023-05-07T21:19:18.567Z,100578.22
2023-05-07T21:22:11.279Z,100585.22
2023-05-07T21:25:04.702Z,100588.06
2023-05-07T21:27:58.840Z,100580.53
2023-05-07T21:30:53.021Z,100580.03
2023-05-07T21:33:45.531Z,100584.41
2023-05-07T21:36:38.697Z,100578.94
2023-05-07T21:39:31.445Z,100577.44
2023-05-07T21:42:24.173Z,100581.28
2023-05-07T21:45:17.547Z,100581.81
2023-05-07T21:48:10.630Z,100571.06
2023-05-07T21:51:03.858Z,100574.00
2023-05-07T21:53:56.459Z,100579.50
2023-05-07T21:56:50.151Z,100585.03
2023-05-07T21:59:43.732Z,100581.06
2023-05-07T22:02:38.129Z,100578.06
2023-05-07T22:05:30.388Z,100576.91
2023-05-07T22:08:23.542Z,100585.91
2023-05-07T22:11:16.446Z,100582.56
2023-05-07T22:14:09.156Z,100578.75
2023-05-07T22:17:01.427Z,100574.59
2023-05-07T22:23:12.016Z,100578.81
2023-05-07T22:26:11.003Z,100581.81
2023-05-07T22:29:03.419Z,100587.50
2023-05-07T22:31:56.501Z,100575.66
2023-05-07T22:34:49.626Z,100585.97
2023-05-07T22:37:42.387Z,100583.69
2023-05-07T22:40:36.935Z,100578.53
2023-05-07T22:43:29.442Z,100576.69
2023-05-07T22:46:22.363Z,100571.91
2023-05-07T22:49:15.647Z,100583.56
2023-05-07T22:52:08.251Z,100581.72
2023-05-07T22:55:00.261Z,100573.06
2023-05-07T22:58:10.466Z,100583.56
2023-05-07T23:01:02.216Z,100584.91
2023-05-07T23:03:55.439Z,100574.94
2023-05-07T23:10:00.677Z,100589.91
2023-05-07T23:16:07.687Z,100583.91
2023-05-07T23:19:00.220Z,100583.09
2023-05-07T23:21:52.397Z,100588.75
2023-05-07T23:28:06.480Z,100590.47
2023-05-07T23:30:59.058Z,100594.97
2023-05-07T23:37:05.546Z,100597.31
2023-05-07T23:39:53.983Z,100591.00
2023-05-07T23:42:40.153Z,100584.50
2023-05-07T23:45:26.338Z,100586.66
2023-05-07T23:48:12.372Z,100584.97
2023-05-07T23:50:58.588Z,100587.16
2023-05-07T23:53:46.211Z,100585.63
2023-05-07T23:56:32.331Z,100579.47
